createdAt,value
2024-05-09T00:01:54.057Z,101267.39
2024-05-09T00:05:06.231Z,101267.80
2024-05-09T00:08:43.124Z,101266.95
2024-05-09T00:12:10.547Z,101271.92
2024-05-09T00:15:42.375Z,101275.35
2024-05-09T00:19:19.315Z,101281.70
2024-05-09T00:22:56.970Z,101274.80
2024-05-09T00:44:16.914Z,101263.33
2024-05-09T00:47:44.855Z,101264.20
2024-05-09T00:51:11.428Z,101268.64
2024-05-09T00:54:39.709Z,101270.58
2024-05-09T00:58:37.741Z,101269.08
2024-05-09T01:34:31.989Z,101267.21
2024-05-09T01:38:07.374Z,101266.11
2024-05-09T01:41:57.355Z,101268.58
2024-05-09T01:49:28.316Z,101273.27
2024-05-09T02:12:01.212Z,101268.08
2024-05-09T02:15:55.386Z,101270.23
2024-05-09T02:19:31.648Z,101274.17
2024-05-09T02:22:57.895Z,101279.82
2024-05-09T02:26:30.751Z,101280.56
2024-05-09T02:29:51.255Z,101284.49
2024-05-09T02:59:22.672Z,101295.52
2024-05-09T03:02:52.479Z,101293.36
2024-05-09T03:06:28.523Z,101288.41
2024-05-09T03:09:45.350Z,101289.14
2024-05-09T03:12:59.851Z,101291.27
2024-05-09T03:16:29.986Z,101286.46
2024-05-09T03:26:55.797Z,101283.83
2024-05-09T03:30:26.210Z,101276.63
2024-05-09T03:47:45.981Z,101284.23
2024-05-09T03:59:19.617Z,101280.16
2024-05-09T04:10:27.753Z,101279.95
2024-05-09T04:39:05.292Z,101280.13
2024-05-09T04:46:52.844Z,101282.09
2024-05-09T04:50:30.163Z,101284.98
2024-05-09T05:52:49.142Z,101276.20
2024-05-09T05:55:55.027Z,101276.89
2024-05-09T05:59:02.662Z,101279.81
2024-05-09T06:02:13.926Z,101277.38
2024-05-09T06:05:21.068Z,101275.42
2024-05-09T06:08:30.761Z,101280.39
2024-05-09T06:11:46.623Z,101278.92
2024-05-09T06:15:11.163Z,101278.92
2024-05-09T06:18:03.827Z,101278.52
2024-05-09T06:21:19.827Z,101280.26
2024-05-09T06:24:23.353Z,101281.31
2024-05-09T06:27:01.274Z,101281.37
2024-05-09T06:30:00.751Z,101284.08
2024-05-09T06:33:08.012Z,101280.98
2024-05-09T06:35:43.872Z,101281.01
2024-05-09T06:38:55.904Z,101280.70
2024-05-09T06:41:39.227Z,101280.41
2024-05-09T06:44:42.366Z,101278.55
2024-05-09T06:47:32.627Z,101281.64
2024-05-09T06:50:52.659Z,101277.65
2024-05-09T06:54:03.949Z,101274.07
2024-05-09T06:56:49.278Z,101268.11
2024-05-09T06:59:29.233Z,101268.41
2024-05-09T07:02:05.911Z,101263.48
2024-05-09T07:04:47.441Z,101258.95
2024-05-09T07:07:28.030Z,101257.61
2024-05-09T07:10:06.273Z,101254.86
2024-05-09T07:12:42.594Z,101259.17
2024-05-09T07:15:15.466Z,101259.80
2024-05-09T07:17:56.683Z,101258.52
2024-05-09T07:20:34.964Z,101247.92
2024-05-09T07:23:06.206Z,101244.29
2024-05-09T07:25:34.673Z,101236.45
2024-05-09T07:28:05.290Z,101230.66
2024-05-09T07:30:35.116Z,101225.64
2024-05-09T07:33:04.188Z,101226.25
2024-05-09T07:35:33.197Z,101225.13
2024-05-09T07:38:03.263Z,101221.73
2024-05-09T07:40:36.837Z,101219.84
2024-05-09T07:43:07.572Z,101218.54
2024-05-09T07:45:48.446Z,101223.56
2024-05-09T07:53:40.404Z,101217.34
2024-05-09T07:56:14.848Z,101218.59
2024-05-09T07:58:44.352Z,101216.73
2024-05-09T08:01:13.177Z,101216.14
2024-05-09T08:03:42.911Z,101214.65
2024-05-09T08:06:11.366Z,101216.96
2024-05-09T08:08:39.856Z,101210.32
2024-05-09T08:11:14.766Z,101207.89
2024-05-09T08:13:45.115Z,101207.06
2024-05-09T08:16:15.743Z,101208.61
2024-05-09T08:18:47.198Z,101207.26
2024-05-09T08:21:15.740Z,101202.98
2024-05-09T08:23:45.091Z,101203.24
2024-05-09T08:26:13.789Z,101207.59
2024-05-09T08:28:42.572Z,101209.15
2024-05-09T08:31:12.403Z,101207.10
2024-05-09T08:33:45.625Z,101208.30
2024-05-09T08:36:15.156Z,101206.70
2024-05-09T08:38:46.246Z,101202.04
2024-05-09T08:41:18.348Z,101202.59
2024-05-09T08:43:47.176Z,101202.45
2024-05-09T08:46:18.855Z,101199.37
2024-05-09T08:48:48.394Z,101199.47
2024-05-09T08:51:17.374Z,101199.79
2024-05-09T08:53:46.428Z,101202.71
2024-05-09T08:56:16.772Z,101197.39
2024-05-09T08:58:46.131Z,101192.81
2024-05-09T09:01:15.430Z,101193.27
2024-05-09T09:03:45.451Z,101191.20
2024-05-09T09:06:16.869Z,101196.14
2024-05-09T09:08:48.896Z,101194.70
2024-05-09T09:11:17.758Z,101194.51
2024-05-09T09:13:47.515Z,101191.72
2024-05-09T09:16:17.366Z,101188.27
2024-05-09T09:18:48.379Z,101184.98
2024-05-09T09:21:18.983Z,101186.11
2024-05-09T09:23:49.240Z,101183.33
2024-05-09T09:26:18.197Z,101185.50
2024-05-09T09:28:47.776Z,101182.38
2024-05-09T09:31:21.023Z,101181.64
2024-05-09T09:33:49.952Z,101181.75
2024-05-09T09:36:20.072Z,101181.17
2024-05-09T09:38:52.027Z,101175.77
2024-05-09T09:41:24.623Z,101173.85
2024-05-09T09:43:57.457Z,101167.83
2024-05-09T09:46:29.321Z,101166.45
2024-05-09T09:48:58.588Z,101161.50
2024-05-09T09:51:29.832Z,101161.06
2024-05-09T09:54:01.619Z,101159.05
2024-05-09T09:56:31.989Z,101155.86
2024-05-09T09:59:05.896Z,101152.84
2024-05-09T10:01:36.625Z,101153.39
2024-05-09T10:04:07.104Z,101150.39
2024-05-09T10:06:37.899Z,101151.81
2024-05-09T10:09:06.253Z,101154.82
2024-05-09T10:11:45.035Z,101151.52
2024-05-09T10:14:23.137Z,101150.23
2024-05-09T10:16:52.762Z,101149.88
2024-05-09T10:19:26.662Z,101145.86
2024-05-09T10:22:04.737Z,101146.08
2024-05-09T10:24:52.141Z,101146.80
2024-05-09T10:27:30.932Z,101155.37
2024-05-09T10:30:00.519Z,101158.52
2024-05-09T10:32:29.687Z,101160.08
2024-05-09T10:35:05.574Z,101161.80
2024-05-09T10:37:37.188Z,101157.74
2024-05-09T10:40:13.982Z,101161.20
2024-05-09T10:42:47.542Z,101156.52
2024-05-09T10:45:16.744Z,101147.61
2024-05-09T10:47:47.521Z,101150.46
2024-05-09T10:50:22.592Z,101152.29
2024-05-09T10:52:58.676Z,101156.54
2024-05-09T10:55:29.146Z,101152.47
2024-05-09T10:57:57.694Z,101144.31
2024-05-09T11:00:36.423Z,101139.39
2024-05-09T11:03:08.064Z,101137.83
2024-05-09T11:05:36.746Z,101136.89
2024-05-09T11:08:07.797Z,101136.25
2024-05-09T11:10:37.168Z,101129.89
2024-05-09T11:13:07.227Z,101126.27
2024-05-09T11:15:40.764Z,101122.98
2024-05-09T11:18:24.422Z,101118.10
2024-05-09T11:20:55.607Z,101114.63
2024-05-09T11:23:28.601Z,101114.69
2024-05-09T11:25:57.985Z,101107.36
2024-05-09T11:28:28.394Z,101111.21
2024-05-09T11:31:06.100Z,101108.27
2024-05-09T11:33:38.926Z,101106.46
2024-05-09T11:36:09.403Z,101102.82
2024-05-09T11:38:39.248Z,101103.33
2024-05-09T11:41:07.627Z,101099.63
2024-05-09T11:43:37.570Z,101097.07
2024-05-09T11:46:10.460Z,101096.23
2024-05-09T11:48:39.717Z,101099.92
2024-05-09T11:51:09.301Z,101092.61
2024-05-09T11:53:38.889Z,101092.67
2024-05-09T11:56:07.906Z,101089.07
2024-05-09T11:58:38.402Z,101090.33
2024-05-09T12:01:07.222Z,101087.52
2024-05-09T12:03:37.919Z,101083.80
2024-05-09T12:06:08.238Z,101080.10
2024-05-09T12:08:36.727Z,101079.27
2024-05-09T12:11:06.924Z,101074.61
2024-05-09T12:13:37.500Z,101073.17
2024-05-09T12:16:06.420Z,101073.77
2024-05-09T12:18:36.236Z,101067.05
2024-05-09T12:21:05.172Z,101071.52
2024-05-09T12:23:35.134Z,101071.94
2024-05-09T12:26:05.652Z,101069.13
2024-05-09T12:28:35.921Z,101071.02
2024-05-09T12:31:05.984Z,101067.23
2024-05-09T12:33:38.336Z,101064.10
2024-05-09T12:36:07.664Z,101062.09
2024-05-09T12:38:35.936Z,101061.27
2024-05-09T12:41:05.404Z,101057.88
2024-05-09T12:43:34.841Z,101060.29
2024-05-09T12:46:03.784Z,101054.52
2024-05-09T12:48:32.487Z,101054.30
2024-05-09T12:51:03.455Z,101052.33
2024-05-09T12:53:33.475Z,101051.38
2024-05-09T12:56:04.310Z,101053.39
2024-05-09T12:58:35.303Z,101052.05
2024-05-09T13:01:03.875Z,101053.84
2024-05-09T13:03:33.667Z,101046.86
2024-05-09T13:06:05.005Z,101040.45
2024-05-09T13:08:34.931Z,101041.06
2024-05-09T13:11:03.692Z,101034.70
2024-05-09T13:13:34.358Z,101034.20
2024-05-09T13:16:05.613Z,101031.67
2024-05-09T13:19:24.492Z,101030.23
2024-05-09T13:21:56.605Z,101022.63
2024-05-09T13:24:25.842Z,101019.77
2024-05-09T13:26:55.980Z,101017.89
2024-05-09T13:29:25.442Z,101012.77
2024-05-09T13:31:53.984Z,101007.20
2024-05-09T13:34:24.165Z,101005.27
2024-05-09T13:36:53.661Z,101004.36
2024-05-09T13:39:24.075Z,101004.70
2024-05-09T13:41:52.482Z,101010.63
2024-05-09T13:44:21.004Z,101001.64
2024-05-09T13:46:51.010Z,101002.08
2024-05-09T13:49:21.744Z,100998.29
2024-05-09T13:51:51.843Z,100995.29
2024-05-09T13:54:22.506Z,100991.73
2024-05-09T13:56:52.599Z,100984.92
2024-05-09T13:59:21.042Z,100987.02
2024-05-09T14:01:49.866Z,100991.83
2024-05-09T14:04:19.839Z,100987.79
2024-05-09T14:06:49.684Z,100983.96
2024-05-09T14:09:19.635Z,100984.64
2024-05-09T14:11:48.401Z,100981.70
2024-05-09T14:14:18.491Z,100976.42
2024-05-09T14:17:13.200Z,100975.89
2024-05-09T14:19:42.732Z,100973.15
2024-05-09T14:22:13.327Z,100971.95
2024-05-09T14:24:43.612Z,100969.04
2024-05-09T14:27:14.032Z,100967.41
2024-05-09T14:29:42.430Z,100959.61
2024-05-09T14:32:10.955Z,100963.89
2024-05-09T14:34:40.127Z,100958.47
2024-05-09T14:37:08.828Z,100957.96
2024-05-09T14:39:38.954Z,100949.16
2024-05-09T14:42:07.618Z,100941.60
2024-05-09T14:44:37.228Z,100940.57
2024-05-09T14:47:07.044Z,100935.89
2024-05-09T14:49:36.489Z,100929.59
2024-05-09T14:52:06.954Z,100925.19
2024-05-09T14:54:36.449Z,100923.83
2024-05-09T14:57:06.106Z,100916.21
2024-05-09T14:59:34.529Z,100917.50
2024-05-09T15:02:03.218Z,100913.06
2024-05-09T15:04:31.806Z,100910.79
2024-05-09T15:07:00.366Z,100904.55
2024-05-09T15:09:36.739Z,100903.48
2024-05-09T15:12:05.321Z,100902.37
2024-05-09T15:14:38.916Z,100899.22
2024-05-09T15:17:07.434Z,100890.95
2024-05-09T15:19:37.772Z,100893.50
2024-05-09T15:22:06.385Z,100886.89
2024-05-09T15:24:34.820Z,100894.80
2024-05-09T15:27:04.626Z,100895.37
2024-05-09T15:29:32.985Z,100894.71
2024-05-09T15:32:01.827Z,100890.73
2024-05-09T15:34:31.280Z,100888.07
2024-05-09T15:37:01.531Z,100884.64
2024-05-09T15:39:30.604Z,100877.91
2024-05-09T15:42:02.849Z,100870.42
2024-05-09T15:44:34.168Z,100867.98
2024-05-09T15:47:04.327Z,100861.62
2024-05-09T15:49:34.964Z,100862.15
2024-05-09T15:52:04.053Z,100861.92
2024-05-09T15:54:32.705Z,100867.73
2024-05-09T15:57:01.161Z,100869.30
2024-05-09T15:59:31.382Z,100866.89
2024-05-09T16:02:02.007Z,100862.38
2024-05-09T16:04:34.164Z,100863.18
2024-05-09T16:07:04.100Z,100858.66
2024-05-09T16:09:35.481Z,100857.36
2024-05-09T16:12:05.437Z,100856.80
2024-05-09T16:14:35.285Z,100853.85
2024-05-09T16:17:30.806Z,100856.19
2024-05-09T16:20:09.067Z,100855.72
2024-05-09T16:22:43.676Z,100855.59
2024-05-09T16:25:13.585Z,100854.13
2024-05-09T16:27:45.565Z,100850.90
2024-05-09T16:30:24.660Z,100848.75
2024-05-09T16:33:01.870Z,100846.57
2024-05-09T16:35:33.231Z,100846.65
2024-05-09T16:38:03.996Z,100845.92
2024-05-09T16:40:38.372Z,100842.98
2024-05-09T16:43:11.907Z,100841.23
2024-05-09T16:45:45.034Z,100843.27
2024-05-09T16:48:15.070Z,100846.88
2024-05-09T16:50:49.197Z,100844.27
2024-05-09T16:53:19.546Z,100844.85
2024-05-09T16:55:48.307Z,100844.10
2024-05-09T16:58:20.884Z,100841.29
2024-05-09T17:00:51.078Z,100842.52
2024-05-09T17:03:25.389Z,100844.36
2024-05-09T17:05:57.767Z,100842.35
2024-05-09T17:08:28.952Z,100844.54
2024-05-09T17:11:02.291Z,100843.70
2024-05-09T17:13:39.908Z,100842.92
2024-05-09T17:16:10.065Z,100841.66
2024-05-09T17:19:29.466Z,100843.21
2024-05-09T17:22:41.237Z,100843.41
2024-05-09T17:25:11.750Z,100841.59
2024-05-09T17:27:43.501Z,100841.10
2024-05-09T17:30:28.074Z,100836.92
2024-05-09T17:33:02.671Z,100836.36
2024-05-09T17:35:33.571Z,100831.38
2024-05-09T17:38:02.927Z,100826.17
2024-05-09T17:40:35.972Z,100826.95
2024-05-09T17:43:09.613Z,100825.76
2024-05-09T17:45:45.737Z,100825.20
2024-05-09T17:48:16.417Z,100829.60
2024-05-09T17:50:48.179Z,100827.11
2024-05-09T17:53:20.668Z,100828.00
2024-05-09T17:55:54.096Z,100831.95
2024-05-09T17:58:25.231Z,100832.33
2024-05-09T18:01:34.376Z,100828.50
2024-05-09T18:04:44.282Z,100825.42
2024-05-09T18:08:13.565Z,100826.49
2024-05-09T18:11:24.418Z,100824.23
2024-05-09T18:14:04.791Z,100824.59
2024-05-09T18:16:39.614Z,100824.39
2024-05-09T18:19:16.178Z,100826.13
2024-05-09T18:21:47.371Z,100828.19
2024-05-09T18:24:22.416Z,100832.73
2024-05-09T18:26:54.061Z,100829.11
2024-05-09T18:29:23.969Z,100832.77
2024-05-09T18:31:59.572Z,100838.35
2024-05-09T18:34:29.483Z,100837.17
2024-05-09T18:37:01.499Z,100838.10
2024-05-09T18:39:38.321Z,100839.63
2024-05-09T18:42:07.899Z,100838.45
2024-05-09T18:44:36.643Z,100836.98
2024-05-09T18:47:10.240Z,100837.87
2024-05-09T18:49:40.745Z,100842.13
2024-05-09T18:52:16.118Z,100843.85
2024-05-09T18:54:49.357Z,100845.68
2024-05-09T18:57:22.928Z,100847.29
2024-05-09T18:59:59.449Z,100855.97
2024-05-09T19:02:32.636Z,100852.27
2024-05-09T19:05:09.135Z,100852.30
2024-05-09T19:07:45.810Z,100853.48
2024-05-09T19:10:28.869Z,100854.39
2024-05-09T19:13:18.990Z,100855.39
2024-05-09T19:15:56.816Z,100854.88
2024-05-09T19:18:35.776Z,100857.08
2024-05-09T19:21:15.825Z,100859.40
2024-05-09T19:23:58.049Z,100856.79
2024-05-09T19:26:40.230Z,100853.13
2024-05-09T19:29:30.115Z,100849.55
2024-05-09T19:32:16.128Z,100849.23
2024-05-09T19:35:00.312Z,100848.73
2024-05-09T19:37:43.837Z,100845.12
2024-05-09T19:40:30.808Z,100851.20
2024-05-09T19:43:09.787Z,100853.93
2024-05-09T19:45:49.233Z,100854.32
2024-05-09T19:48:31.559Z,100853.05
2024-05-09T19:51:13.623Z,100857.38
2024-05-09T19:54:01.805Z,100855.32
2024-05-09T19:56:45.319Z,100853.91
2024-05-09T19:59:31.339Z,100852.98
2024-05-09T20:02:17.752Z,100855.13
2024-05-09T20:05:04.465Z,100856.68
2024-05-09T20:07:49.671Z,100856.28
2024-05-09T20:10:36.654Z,100859.33
2024-05-09T20:13:24.584Z,100855.41
2024-05-09T20:16:14.185Z,100856.17
2024-05-09T20:18:58.243Z,100855.58
2024-05-09T20:21:46.269Z,100851.01
2024-05-09T20:24:43.305Z,100853.08
2024-05-09T20:27:20.855Z,100853.38
2024-05-09T20:30:09.753Z,100851.46
2024-05-09T20:33:01.313Z,100855.75
2024-05-09T20:35:41.305Z,100856.90
2024-05-09T20:38:27.291Z,100852.13
2024-05-09T20:41:17.117Z,100853.25
2024-05-09T20:44:11.018Z,100848.52
2024-05-09T20:47:09.868Z,100849.93
2024-05-09T20:49:50.782Z,100848.58
2024-05-09T20:52:34.606Z,100848.52
2024-05-09T20:55:15.954Z,100848.76
2024-05-09T20:57:56.356Z,100848.61
2024-05-09T21:00:39.763Z,100848.15
2024-05-09T21:03:17.271Z,100849.83
2024-05-09T21:05:49.010Z,100844.71
2024-05-09T21:08:31.187Z,100841.38
2024-05-09T21:11:23.179Z,100842.55
2024-05-09T21:14:06.242Z,100840.39
2024-05-09T21:16:51.722Z,100839.73
2024-05-09T21:19:30.037Z,100839.33
2024-05-09T21:22:07.702Z,100839.46
2024-05-09T21:24:45.104Z,100838.14
2024-05-09T21:27:24.846Z,100839.08
2024-05-09T21:30:02.479Z,100837.95
2024-05-09T21:32:41.475Z,100836.86
2024-05-09T21:35:28.418Z,100835.99
2024-05-09T21:38:15.191Z,100834.83
2024-05-09T21:40:54.917Z,100836.41
2024-05-09T21:43:27.147Z,100834.70
2024-05-09T21:46:06.119Z,100830.66
2024-05-09T21:48:40.918Z,100828.40
2024-05-09T21:51:34.511Z,100829.54
2024-05-09T21:54:28.774Z,100830.95
2024-05-09T21:57:27.003Z,100831.61
2024-05-09T22:00:36.451Z,100831.48
2024-05-09T22:03:57.870Z,100831.61
2024-05-09T22:07:14.871Z,100829.14
2024-05-09T22:10:33.396Z,100829.23
2024-05-09T22:13:29.503Z,100823.71
2024-05-09T22:16:43.943Z,100826.11
2024-05-09T22:19:30.117Z,100824.67
2024-05-09T22:22:34.470Z,100826.27
2024-05-09T22:25:41.232Z,100820.14
2024-05-09T22:28:39.362Z,100818.28
2024-05-09T22:31:47.201Z,100819.40
2024-05-09T22:35:00.394Z,100818.27
2024-05-09T22:38:05.013Z,100821.04
2024-05-09T22:41:17.021Z,100822.52
2024-05-09T22:44:31.840Z,100829.60
2024-05-09T22:47:27.717Z,100846.66
2024-05-09T22:50:26.791Z,100835.62
2024-05-09T22:53:28.893Z,100842.13
2024-05-09T22:56:58.022Z,100839.50
2024-05-09T23:00:15.949Z,100834.83
2024-05-09T23:03:22.015Z,100837.25
2024-05-09T23:06:19.526Z,100837.21
2024-05-09T23:09:22.260Z,100828.79
2024-05-09T23:12:22.352Z,100828.95
2024-05-09T23:15:28.049Z,100827.25
2024-05-09T23:18:53.927Z,100821.45
2024-05-09T23:22:22.421Z,100816.65
2024-05-09T23:25:51.452Z,100813.17
2024-05-09T23:29:03.492Z,100813.22
2024-05-09T23:32:04.463Z,100809.51
2024-05-09T23:35:26.036Z,100804.17
2024-05-09T23:38:41.924Z,100803.61
2024-05-09T23:41:49.143Z,100798.05
2024-05-09T23:44:53.303Z,100796.63
2024-05-09T23:47:57.842Z,100793.60
2024-05-09T23:51:19.832Z,100793.34
2024-05-09T23:54:40.396Z,100790.48
2024-05-09T23:58:00.216Z,100788.65
